Latest Weather Observations for Gold Coast Seaway

IDQ60901

Issued at 9:01 am EST Sunday 1 March 2015 (issued every 10 minutes, with the page automatically refreshed every 10 minutes)

About weather observations | Map of Brisbane area stations | Latest observations for Brisbane area | Other Formats
Station Details ID: 040764 Name: GOLD COAST SEAWAY Lat: -27.94 Lon: 153.43 Height: 2.98 m
Data from the previous 72 hours. | See also: Recent months at Gold Coast Seaway
Date/Time
EST
Tmp

°C
App
Tmp
°C
Dew
Point
°C
Rel
Hum
%
Delta-T

°C
Wind Press
QNH
hPa
Press
MSL
hPa
Rain
since
9 am
mm
Dir
 
Spd
km/h
Gust
km/h
Spd
kts
Gust
kts
01/08:30am 26.5 29.0 20.3 68 4.1 W 7 11 4 6 1010.9 1010.9 0.2
01/08:00am 25.9 28.7 20.9 74 3.3 SW 7 9 4 5 1010.8 1010.8 0.2
01/07:30am 25.0 28.0 21.3 80 2.4 SW 7 9 4 5 1010.7 1010.7 0.2
01/07:00am 24.0 27.3 21.9 88 1.4 SW 7 11 4 6 1010.6 1010.6 0.2
01/06:30am 23.0 26.3 22.5 97 0.3 SW 9 11 5 6 1010.5 1010.5 0.2
01/06:00am 22.4 25.5 22.2 99 0.1 SW 9 11 5 6 1010.2 1010.2 0.2
01/05:30am 22.4 25.3 21.7 96 0.5 W 9 11 5 6 1009.9 1009.9 0.2
01/05:00am 22.7 25.9 21.7 94 0.7 W 7 9 4 5 1009.8 1009.8 0.2
01/04:30am 23.2 26.6 21.6 91 1.1 W 6 7 3 4 1009.5 1009.5 0.2
01/04:00am 23.2 26.8 22.0 93 0.8 W 6 9 3 5 1009.5 1009.5 0.2
01/03:30am 23.3 27.4 21.6 90 1.1 W 2 7 1 4 1009.5 1009.5 0.2
01/03:00am 23.7 26.5 21.6 88 1.4 WNW 9 13 5 7 1009.7 1009.7 0.2
01/02:30am 24.0 26.2 21.1 84 1.9 N 11 19 6 10 1009.8 1009.8 0.2
01/02:00am 24.6 25.8 21.5 83 2.1 NE 17 20 9 11 1009.9 1009.9 0.2
01/01:30am 24.5 26.3 21.8 85 1.8 NE 15 22 8 12 1010.0 1010.0 0.2
01/01:00am 24.1 26.9 20.8 82 2.2 NE 7 13 4 7 1010.4 1010.4 0.0
01/12:30am 24.4 26.4 20.7 80 2.4 N 11 15 6 8 1010.7 1010.7 0.0
 
Date/Time
EST
Tmp

°C
App
Tmp
°C
Dew
Point
°C
Rel
Hum
%
Delta-T

°C
Wind Press
QNH
hPa
Press
MSL
hPa
Rain
since
9 am
mm
Dir
 
Spd
km/h
Gust
km/h
Spd
kts
Gust
kts
28/11:30pm 24.8 26.3 20.5 77 2.8 NNE 13 17 7 9 1011.3 1011.3 0.0
28/11:00pm 24.9 26.2 20.8 78 2.7 NNE 15 17 8 9 1011.3 1011.3 0.0
28/10:30pm 25.1 26.0 20.1 74 3.2 NE 15 17 8 9 1011.5 1011.5 0.0
28/10:00pm 25.1 26.6 20.6 76 2.9 NE 13 15 7 8 1011.6 1011.6 0.0
28/09:30pm 25.0 26.6 20.7 77 2.8 NE 13 17 7 9 1011.6 1011.6 0.0
28/09:00pm 25.2 26.6 21.1 78 2.7 NE 15 19 8 10 1011.4 1011.4 0.0
28/08:30pm 25.2 25.9 20.5 75 3.1 NE 17 19 9 10 1011.3 1011.3 0.0
28/08:00pm 25.2 25.9 20.5 75 3.1 ENE 17 20 9 11 1011.0 1011.0 0.0
28/07:30pm 25.3 26.0 20.5 75 3.1 ENE 17 22 9 12 1010.7 1010.7 0.0
28/07:00pm 25.5 26.6 21.2 77 2.8 NE 17 19 9 10 1010.4 1010.4 0.0
28/06:30pm 25.4 26.7 20.9 76 3.0 ENE 15 19 8 10 1010.1 1010.1 0.0
28/06:00pm 25.5 26.2 20.5 74 3.3 ENE 17 20 9 11 1009.8 1009.8 0.0
28/05:30pm 25.9 26.6 20.5 72 3.5 ENE 17 22 9 12 1009.5 1009.5 0.0
28/05:00pm 26.8 27.7 20.9 70 3.9 ENE 17 22 9 12 1009.4 1009.4 0.0
28/04:30pm 26.5 27.1 21.0 72 3.6 ENE 19 22 10 12 1009.4 1009.4 0.0
28/04:00pm 26.5 27.5 21.0 72 3.6 ENE 17 22 9 12 1009.3 1009.3 0.0
28/03:30pm 26.7 27.6 21.5 73 3.5 ENE 19 26 10 14 1009.3 1009.3 0.0
28/03:00pm 27.4 28.7 22.3 73 3.4 NE 19 24 10 13 1009.2 1009.2 0.0
28/02:30pm 28.0 28.8 21.8 69 4.2 ENE 20 24 11 13 1009.4 1009.4 0.0
28/02:00pm 28.2 29.4 22.2 70 4.1 ENE 19 24 10 13 1009.6 1009.6 0.0
28/01:30pm 28.3 29.3 22.1 69 4.2 E 20 24 11 13 1009.9 1009.9 0.0
28/01:00pm 28.3 29.3 22.1 69 4.2 E 20 24 11 13 1010.0 1010.0 0.0
28/12:30pm 28.3 29.7 22.5 71 3.9 E 19 20 10 11 1010.4 1010.4 0.0
28/12:00pm 28.2 29.4 22.2 70 4.1 E 19 24 10 13 1010.6 1010.6 0.0
28/11:30am 28.1 29.5 22.6 72 3.7 E 19 20 10 11 1010.8 1010.8 0.0
28/11:00am 28.6 30.9 22.8 71 4.0 E 15 17 8 9 1011.0 1011.0 0.0
28/10:30am 28.2 30.5 22.0 69 4.2 E 13 15 7 8 1011.2 1011.2 0.0
28/10:00am 27.8 30.1 22.1 71 3.8 E 13 15 7 8 1011.3 1011.3 0.0
28/09:30am 27.5 29.6 22.4 73 3.4 ESE 15 17 8 9 1011.3 1011.3 0.0
28/09:00am 27.1 30.0 23.1 79 2.7 SSE 13 15 7 8 1011.4 1011.4 23.2
28/08:30am 25.4 28.4 20.9 76 3.0 WSW 6 9 3 5 1011.2 1011.2 23.2
28/08:00am 24.1 27.3 21.6 86 1.7 WSW 7 11 4 6 1011.0 1011.0 23.2
28/07:30am 23.7 26.8 22.1 91 1.1 WSW 9 11 5 6 1010.8 1010.8 23.2
28/07:00am 23.0 26.4 22.7 98 0.2 WSW 9 11 5 6 1010.6 1010.6 23.2
28/06:30am 22.2 25.3 22.2 100 0.0 WSW 9 11 5 6 1010.3 1010.3 23.2
28/06:00am 21.7 24.6 21.7 100 0.0 WSW 9 11 5 6 1010.1 1010.1 23.2
28/05:30am 21.6 24.8 21.6 100 0.0 N 7 11 4 6 1009.8 1009.8 23.2
28/05:00am 21.7 24.9 21.7 100 0.0 N 7 9 4 5 1009.7 1009.7 23.2
28/04:30am 21.9 25.2 21.9 100 0.0 N 7 11 4 6 1009.9 1009.9 23.2
28/04:00am 22.0 25.0 22.0 100 0.0 NW 9 11 5 6 1009.8 1009.8 23.0
28/03:30am 21.8 24.3 21.8 100 0.0 W 11 15 6 8 1009.5 1009.5 23.0
28/03:00am 21.9 24.1 21.9 100 0.0 WNW 13 17 7 9 1009.5 1009.5 22.8
28/02:30am 21.9 24.5 21.9 100 0.0 W 11 15 6 8 1009.7 1009.7 22.8
28/02:00am 21.7 23.3 21.5 99 0.1 N 15 22 8 12 1009.8 1009.8 22.8
28/01:30am 22.6 26.5 22.6 100 0.0 E 6 11 3 6 1010.0 1010.0 20.2
28/01:00am 22.5 22.6 22.5 100 0.0 ESE 26 37 14 20 1009.9 1009.9 16.4
28/12:46am 22.3 20.9 22.3 100 0.0 ESE 33 44 18 24 1009.7 1009.7 9.4
28/12:30am 23.2 24.7 23.0 99 0.1 SE 20 26 11 14 1010.2 1010.2 5.0
28/12:00am 25.4 25.6 20.6 75 3.1 N 20 24 11 13 1009.8 1009.8 0.0
 
Date/Time
EST
Tmp

°C
App
Tmp
°C
Dew
Point
°C
Rel
Hum
%
Delta-T

°C
Wind Press
QNH
hPa
Press
MSL
hPa
Rain
since
9 am
mm
Dir
 
Spd
km/h
Gust
km/h
Spd
kts
Gust
kts
27/11:30pm 25.3 25.6 20.5 75 3.1 NNE 19 22 10 12 1010.0 1010.0 0.0
27/11:00pm 25.2 25.1 20.7 76 3.0 NNE 22 26 12 14 1009.7 1009.7 0.0
27/10:30pm 25.4 25.9 20.9 76 3.0 NNE 19 24 10 13 1009.9 1009.9 0.0
27/10:00pm 25.1 25.8 20.4 75 3.1 NNE 17 19 9 10 1009.8 1009.8 0.0
27/09:30pm 25.3 26.3 20.3 74 3.3 NE 15 19 8 10 1009.9 1009.9 0.0
27/09:00pm 25.4 26.6 20.6 75 3.1 ENE 15 17 8 9 1010.1 1010.1 0.0
27/08:30pm 25.5 26.3 20.7 75 3.1 NE 17 19 9 10 1009.9 1009.9 0.0
27/08:00pm 25.4 25.6 20.6 75 3.1 NE 20 24 11 13 1009.6 1009.6 0.0
27/07:30pm 25.4 26.2 20.6 75 3.1 NE 17 20 9 11 1009.0 1009.0 0.0
27/07:00pm 25.4 25.7 20.4 74 3.3 ENE 19 24 10 13 1008.6 1008.6 0.0
27/06:30pm 25.6 26.5 20.8 75 3.2 ENE 17 20 9 11 1008.5 1008.5 0.0
27/06:00pm 25.7 26.0 20.7 74 3.3 ENE 20 24 11 13 1008.3 1008.3 0.0
27/05:30pm 25.9 26.0 20.0 70 3.8 NE 19 22 10 12 1007.5 1007.5 0.0
27/05:00pm 26.8 27.1 20.4 68 4.2 NE 19 22 10 12 1007.3 1007.3 0.0
27/04:30pm 27.1 27.1 20.2 66 4.5 NE 20 24 11 13 1007.1 1007.1 0.0
27/04:00pm 27.6 27.1 19.9 63 5.0 NE 22 26 12 14 1006.9 1006.9 0.0
27/03:30pm 28.1 27.7 20.1 62 5.2 NE 22 26 12 14 1006.9 1006.9 0.0
27/03:00pm 27.7 28.3 21.0 67 4.4 NE 19 22 10 12 1007.0 1007.0 0.0
27/02:30pm 26.8 26.9 20.4 68 4.2 NE 20 22 11 12 1007.1 1007.1 0.0
27/02:00pm 27.7 28.3 21.3 68 4.3 NE 20 24 11 13 1007.2 1007.2 0.0
27/01:30pm 27.2 27.0 19.8 64 4.8 NE 20 24 11 13 1007.3 1007.3 0.0
27/01:00pm 28.1 29.4 20.9 65 4.8 ENE 15 19 8 10 1007.9 1007.9 0.0
27/12:30pm 27.8 29.3 21.3 67 4.3 ENE 15 19 8 10 1007.9 1007.9 0.0
27/12:00pm 29.5 31.4 22.0 64 5.1 NE 15 19 8 10 1008.1 1008.1 0.0
27/11:30am 28.9 31.0 20.9 62 5.3 N 11 19 6 10 1008.5 1008.5 0.0
27/11:00am 27.6 28.3 18.9 59 5.6 NW 13 19 7 10 1008.9 1008.9 0.0
27/10:30am 27.1 28.2 19.7 64 4.8 NNW 13 17 7 9 1009.3 1009.3 0.0
27/10:00am 27.0 27.8 19.9 65 4.6 NW 15 26 8 14 1009.3 1009.3 0.0
27/09:30am 26.0 27.2 20.6 72 3.5 NNW 15 19 8 10 1009.2 1009.2 0.0
27/09:00am 25.9 26.7 21.3 76 3.0 NW 19 24 10 13 1009.3 1009.3 0.0
27/08:30am 24.4 26.0 21.5 84 1.9 NW 15 20 8 11 1009.0 1009.0 0.0
27/08:00am 23.9 25.7 21.2 85 1.8 NW 13 15 7 8 1009.0 1009.0 0.0
27/07:30am 23.7 26.2 21.8 89 1.3 NW 11 15 6 8 1008.5 1008.5 0.0
27/07:00am 23.2 26.3 21.1 88 1.4 WSW 6 9 3 5 1008.8 1008.8 0.0
27/06:30am 23.0 26.0 21.3 90 1.1 WSW 7 9 4 5 1009.5 1009.5 0.0
27/06:00am 22.9 25.4 21.0 89 1.2 WSW 9 11 5 6 1009.4 1009.4 0.0
27/05:30am 23.0 25.4 20.9 88 1.4 WSW 9 11 5 6 1008.9 1008.9 0.0
27/05:00am 23.1 25.8 20.6 86 1.6 S 7 11 4 6 1008.5 1008.5 0.0
27/04:30am 23.1 25.6 20.2 84 1.9 S 7 9 4 5 1007.9 1007.9 0.0
27/04:00am 23.4 25.6 20.3 83 2.0 S 9 13 5 7 1008.2 1008.2 0.0
27/03:30am 24.3 26.3 20.0 77 2.8 NNE 9 15 5 8 1008.0 1008.0 0.0
27/03:00am 24.5 26.0 20.6 79 2.6 NE 13 17 7 9 1007.0 1007.0 0.0
27/02:30am 24.4 26.0 20.7 80 2.4 NE 13 15 7 8 1007.3 1007.3 0.0
27/02:00am 24.4 25.4 20.3 78 2.7 ENE 15 17 8 9 1007.8 1007.8 0.0
27/01:30am 24.5 25.8 20.2 77 2.8 NE 13 17 7 9 1007.6 1007.6 0.0
27/01:00am 24.8 26.2 20.3 76 2.9 NE 13 17 7 9 1007.9 1007.9 0.0
27/12:30am 24.9 26.1 20.6 77 2.8 NE 15 17 8 9 1008.2 1008.2 0.0
27/12:00am 25.0 26.4 20.3 75 3.1 NE 13 17 7 9 1008.5 1008.5 0.0
 
Date/Time
EST
Tmp

°C
App
Tmp
°C
Dew
Point
°C
Rel
Hum
%
Delta-T

°C
Wind Press
QNH
hPa
Press
MSL
hPa
Rain
since
9 am
mm
Dir
 
Spd
km/h
Gust
km/h
Spd
kts
Gust
kts
26/11:30pm 25.0 26.2 20.0 74 3.2 ENE 13 17 7 9 1008.7 1008.7 0.0
26/11:00pm 25.0 26.5 20.5 76 2.9 ENE 13 15 7 8 1008.9 1008.9 0.0
26/10:30pm 25.0 26.2 19.8 73 3.4 ENE 13 17 7 9 1009.0 1009.0 0.0
26/10:00pm 25.0 25.8 19.8 73 3.4 ENE 15 19 8 10 1009.0 1009.0 0.0
26/09:30pm 25.0 26.2 19.8 73 3.4 ENE 13 17 7 9 1009.0 1009.0 0.0
26/09:00pm 24.8 25.9 19.6 73 3.4 E 13 17 7 9 1008.8 1008.8 0.0
26/08:30pm 24.9 26.1 19.9 74 3.2 ENE 13 15 7 8 1009.0 1009.0 0.0
26/08:00pm 24.8 25.4 19.4 72 3.5 E 15 17 8 9 1008.6 1008.6 0.0
26/07:30pm 25.0 25.9 20.0 74 3.2 E 15 19 8 10 1008.7 1008.7 0.0
26/07:00pm 25.0 26.0 20.3 75 3.1 ESE 15 17 8 9 1008.2 1008.2 0.0
26/06:30pm 25.0 25.3 19.6 72 3.5 ESE 17 19 9 10 1008.0 1008.0 0.0
26/06:00pm 25.2 25.0 19.3 70 3.8 ESE 19 22 10 12 1007.8 1007.8 0.0
26/05:30pm 25.4 25.6 19.3 69 3.9 ESE 17 19 9 10 1007.6 1007.6 0.0
26/05:00pm 25.8 26.1 18.7 65 4.5 ESE 15 17 8 9 1007.7 1007.7 0.0
26/04:30pm 25.8 26.3 19.2 67 4.2 ESE 15 17 8 9 1007.4 1007.4 0.0
26/04:00pm 26.1 26.2 19.2 65 4.4 ESE 17 19 9 10 1007.6 1007.6 0.0
26/03:30pm 26.9 26.9 19.0 62 5.1 ESE 17 19 9 10 1007.5 1007.5 0.0
26/03:00pm 28.1 28.0 19.6 60 5.5 E 19 22 10 12 1007.4 1007.4 0.0
26/02:30pm 28.3 28.0 19.2 57 5.9 E 19 22 10 12 1007.8 1007.8 0.0
26/02:00pm 28.3 28.0 19.2 57 5.9 E 19 22 10 12 1007.9 1007.9 0.0
26/01:30pm 27.0 26.3 18.3 59 5.5 ESE 19 24 10 13 1008.6 1008.6 0.0
26/01:00pm 27.8 27.5 19.1 59 5.6 ESE 19 24 10 13 1008.7 1008.7 0.0
26/12:30pm 28.1 27.9 19.3 58 5.7 ESE 19 22 10 12 1009.1 1009.1 0.0
26/12:00pm 28.5 28.8 20.5 62 5.3 SE 19 24 10 13 1009.2 1009.2 0.0
26/11:30am 28.3 28.9 20.3 62 5.3 ESE 17 20 9 11 1009.6 1009.6 0.0
26/11:00am 28.0 28.8 20.6 64 4.9 SE 17 20 9 11 1009.9 1009.9 0.0
26/10:30am 28.1 28.4 19.6 60 5.5 SE 17 19 9 10 1010.1 1010.1 0.0
26/10:00am 28.2 28.9 20.5 63 5.1 SSE 17 20 9 11 1010.2 1010.2 0.0
26/09:30am 27.9 29.3 21.0 66 4.6 SSE 15 19 8 10 1010.1 1010.1 0.0

Latest Capital City Observations: Canberra | Sydney | Melbourne | Brisbane | Adelaide | Perth | Hobart | Darwin

Other Formats:

Comma delimited format used in spreadsheet applications
http://www.bom.gov.au/fwo/IDQ60901/IDQ60901.94580.axf

JavaScript Object Notation format (JSON) in row-major order
http://www.bom.gov.au/fwo/IDQ60901/IDQ60901.94580.json